This is the latest recevied weather packets stored in our database for station/object W0CHP-13. If no packets are shown the sender has not sent any weather packets the latest 10 day(s).
| Time | Temp. | Humidity | Pressure | Rain* | Wind** | Luminosity | Snow |
|---|---|---|---|---|---|---|---|
| 1778009597 | 13.89° C | 25% | 1008.9 hPa | 0 mm | - | 755 W/m² | - |
| 1778008995 | 14.44° C | 24% | 1008.9 hPa | 0 mm | - | 280 W/m² | - |
| 1778008397 | 13.89° C | 26% | 1008.9 hPa | 0 mm | - | 989 W/m² | - |
| 1778007796 | 13.89° C | 24% | 1008.9 hPa | 0 mm | - | 266 W/m² | - |
| 1778007198 | 13.89° C | 26% | 1008.9 hPa | 0 mm | - | 661 W/m² | - |
| 1778006596 | 14.44° C | 24% | 1008.9 hPa | 0 mm | - | 322 W/m² | - |
| 1778005998 | 14.44° C | 24% | 1008.9 hPa | 0 mm | - | 790 W/m² | - |
| 1778005396 | 13.89° C | 27% | 1008.9 hPa | 0 mm | - | 887 W/m² | - |
| 1778004799 | 14.44° C | 24% | 1008.5 hPa | 0 mm | - | 268 W/m² | - |
| 1778004197 | 13.33° C | 27% | 1008.7 hPa | 0 mm | - | 532 W/m² | - |
| 1778003595 | 13.89° C | 24% | 1008.7 hPa | 0 mm | - | 478 W/m² | - |
| 1778002997 | 14.44° C | 24% | 1008.9 hPa | 0 mm | - | 721 W/m² | - |
| 1778002395 | 14.44° C | 24% | 1008.7 hPa | 0 mm | - | 386 W/m² | - |
| 1778001797 | 15° C | 25% | 1008.7 hPa | 0 mm | - | 529 W/m² | - |
| 1778001196 | 14.44° C | 25% | 1008.7 hPa | 0 mm | - | 895 W/m² | - |
| 1778000598 | 16.11° C | 23% | 1008.7 hPa | 0 mm | - | 954 W/m² | - |
| 1777999996 | 15° C | 25% | 1008.9 hPa | 0 mm | - | 779 W/m² | - |
| 1777999398 | 15.56° C | 23% | 1008.5 hPa | 0 mm | - | 735 W/m² | - |
| 1777998796 | 15° C | 25% | 1008.9 hPa | 0 mm | - | 745 W/m² | - |
| 1777998198 | 16.11° C | 22% | 1008.9 hPa | 0 mm | - | 525 W/m² | - |
| 1777997597 | 15.56° C | 24% | 1008.9 hPa | 0 mm | - | 619 W/m² | - |
| 1777996995 | 15° C | 23% | 1008.9 hPa | 0 mm | - | 661 W/m² | - |
| 1777996397 | 15.56° C | 21% | 1008.5 hPa | 0 mm | - | 627 W/m² | - |
| 1777995795 | 15° C | 24% | 1008.9 hPa | 0 mm | - | 580 W/m² | - |
| 1777995198 | 14.44° C | 23% | 1008.9 hPa | 0 mm | - | 607 W/m² | - |
* Rain latest hour (hover to see other rain measurements)
** Current wind speed in m/s (hover to see current wind gust speed)